sensor_id;sensor_type;location;lat;lon;timestamp;temperature;humidity
32612;DHT22;19030;49.478;8.986;2023-03-11T00:01:44;3.10;99.90
32612;DHT22;19030;49.478;8.986;2023-03-11T00:03:45;3.10;99.90
32612;DHT22;19030;49.478;8.986;2023-03-11T00:05:46;3.00;99.90
32612;DHT22;19030;49.478;8.986;2023-03-11T00:07:46;2.90;99.90
32612;DHT22;19030;49.478;8.986;2023-03-11T00:09:47;2.90;99.90
32612;DHT22;19030;49.478;8.986;2023-03-11T00:11:47;3.00;99.90
32612;DHT22;19030;49.478;8.986;2023-03-11T00:13:49;3.00;99.90
32612;DHT22;19030;49.478;8.986;2023-03-11T00:15:51;3.00;99.90
32612;DHT22;19030;49.478;8.986;2023-03-11T00:17:56;3.00;99.90
32612;DHT22;19030;49.478;8.986;2023-03-11T00:19:56;2.90;99.90
32612;DHT22;19030;49.478;8.986;2023-03-11T00:21:57;2.90;99.90
32612;DHT22;19030;49.478;8.986;2023-03-11T00:23:58;2.90;99.90
32612;DHT22;19030;49.478;8.986;2023-03-11T00:26:03;2.90;99.90
32612;DHT22;19030;49.478;8.986;2023-03-11T00:28:04;2.80;99.90
32612;DHT22;19030;49.478;8.986;2023-03-11T00:30:07;2.70;99.90
32612;DHT22;19030;49.478;8.986;2023-03-11T00:32:08;2.70;99.90
32612;DHT22;19030;49.478;8.986;2023-03-11T00:34:10;2.60;99.90
32612;DHT22;19030;49.478;8.986;2023-03-11T00:36:28;2.50;99.90
32612;DHT22;19030;49.478;8.986;2023-03-11T00:38:30;2.50;99.90
32612;DHT22;19030;49.478;8.986;2023-03-11T00:40:32;2.40;99.90
32612;DHT22;19030;49.478;8.986;2023-03-11T00:42:36;2.40;99.90
32612;DHT22;19030;49.478;8.986;2023-03-11T00:44:36;2.30;99.90
32612;DHT22;19030;49.478;8.986;2023-03-11T00:46:37;2.20;99.90
32612;DHT22;19030;49.478;8.986;2023-03-11T00:48:37;2.20;99.90
32612;DHT22;19030;49.478;8.986;2023-03-11T00:50:39;2.20;99.90
32612;DHT22;19030;49.478;8.986;2023-03-11T00:52:39;2.20;99.90
32612;DHT22;19030;49.478;8.986;2023-03-11T00:54:40;2.20;99.90
32612;DHT22;19030;49.478;8.986;2023-03-11T00:56:41;2.20;99.90
32612;DHT22;19030;49.478;8.986;2023-03-11T00:58:43;2.10;99.90
32612;DHT22;19030;49.478;8.986;2023-03-11T01:00:44;2.00;99.90
32612;DHT22;19030;49.478;8.986;2023-03-11T01:02:44;1.90;99.90
32612;DHT22;19030;49.478;8.986;2023-03-11T01:04:45;1.90;99.90
32612;DHT22;19030;49.478;8.986;2023-03-11T01:06:46;1.90;99.90
32612;DHT22;19030;49.478;8.986;2023-03-11T01:08:46;1.90;99.90
32612;DHT22;19030;49.478;8.986;2023-03-11T01:10:47;1.90;99.90
32612;DHT22;19030;49.478;8.986;2023-03-11T01:12:48;1.80;99.90
32612;DHT22;19030;49.478;8.986;2023-03-11T01:14:48;1.80;99.90
32612;DHT22;19030;49.478;8.986;2023-03-11T01:16:49;1.80;99.90
32612;DHT22;19030;49.478;8.986;2023-03-11T01:18:50;1.90;99.90
32612;DHT22;19030;49.478;8.986;2023-03-11T01:20:50;2.00;99.90
32612;DHT22;19030;49.478;8.986;2023-03-11T01:22:51;2.00;99.90
32612;DHT22;19030;49.478;8.986;2023-03-11T01:24:51;2.00;99.90
32612;DHT22;19030;49.478;8.986;2023-03-11T01:26:52;2.00;99.90
32612;DHT22;19030;49.478;8.986;2023-03-11T01:28:52;2.00;99.90
32612;DHT22;19030;49.478;8.986;2023-03-11T01:30:53;1.90;99.90
32612;DHT22;19030;49.478;8.986;2023-03-11T01:32:56;1.90;99.90
32612;DHT22;19030;49.478;8.986;2023-03-11T01:34:57;1.90;99.90
32612;DHT22;19030;49.478;8.986;2023-03-11T01:37:00;1.90;99.90
32612;DHT22;19030;49.478;8.986;2023-03-11T01:39:00;1.80;99.90
32612;DHT22;19030;49.478;8.986;2023-03-11T01:41:01;1.80;99.90
32612;DHT22;19030;49.478;8.986;2023-03-11T01:43:02;1.80;99.90
32612;DHT22;19030;49.478;8.986;2023-03-11T01:45:41;1.80;99.90
32612;DHT22;19030;49.478;8.986;2023-03-11T01:47:42;1.80;99.90
32612;DHT22;19030;49.478;8.986;2023-03-11T01:49:44;1.80;99.90
32612;DHT22;19030;49.478;8.986;2023-03-11T01:51:48;1.70;99.90
32612;DHT22;19030;49.478;8.986;2023-03-11T01:53:52;1.70;99.90
32612;DHT22;19030;49.478;8.986;2023-03-11T01:55:54;1.70;99.90
32612;DHT22;19030;49.478;8.986;2023-03-11T01:57:56;1.70;99.90
32612;DHT22;19030;49.478;8.986;2023-03-11T01:59:57;1.80;99.90
32612;DHT22;19030;49.478;8.986;2023-03-11T02:02:08;1.80;99.90
32612;DHT22;19030;49.478;8.986;2023-03-11T02:04:11;1.90;99.90
32612;DHT22;19030;49.478;8.986;2023-03-11T02:06:18;1.90;99.90
32612;DHT22;19030;49.478;8.986;2023-03-11T02:08:20;1.90;99.90
32612;DHT22;19030;49.478;8.986;2023-03-11T02:10:21;2.00;99.90
32612;DHT22;19030;49.478;8.986;2023-03-11T02:12:22;2.10;99.90
32612;DHT22;19030;49.478;8.986;2023-03-11T02:14:23;2.10;99.90
32612;DHT22;19030;49.478;8.986;2023-03-11T02:16:26;2.10;99.90
32612;DHT22;19030;49.478;8.986;2023-03-11T02:18:27;2.10;99.90
32612;DHT22;19030;49.478;8.986;2023-03-11T02:20:58;2.10;99.90
32612;DHT22;19030;49.478;8.986;2023-03-11T02:23:03;2.10;99.90
32612;DHT22;19030;49.478;8.986;2023-03-11T02:27:30;2.20;99.90
32612;DHT22;19030;49.478;8.986;2023-03-11T02:29:33;2.20;99.90
32612;DHT22;19030;49.478;8.986;2023-03-11T02:31:36;2.20;99.90
32612;DHT22;19030;49.478;8.986;2023-03-11T02:33:38;2.30;99.90
32612;DHT22;19030;49.478;8.986;2023-03-11T02:35:40;2.30;99.90
32612;DHT22;19030;49.478;8.986;2023-03-11T02:37:46;2.20;99.90
32612;DHT22;19030;49.478;8.986;2023-03-11T02:39:50;2.20;99.90
32612;DHT22;19030;49.478;8.986;2023-03-11T02:41:51;2.20;99.90
32612;DHT22;19030;49.478;8.986;2023-03-11T02:43:52;2.20;99.90
32612;DHT22;19030;49.478;8.986;2023-03-11T02:45:55;2.20;99.90
32612;DHT22;19030;49.478;8.986;2023-03-11T02:47:57;2.20;99.90
32612;DHT22;19030;49.478;8.986;2023-03-11T02:49:58;2.20;99.90
32612;DHT22;19030;49.478;8.986;2023-03-11T02:51:59;2.20;99.90
32612;DHT22;19030;49.478;8.986;2023-03-11T02:54:03;2.20;99.90
32612;DHT22;19030;49.478;8.986;2023-03-11T02:56:05;2.20;99.90
32612;DHT22;19030;49.478;8.986;2023-03-11T02:58:08;2.20;99.90
32612;DHT22;19030;49.478;8.986;2023-03-11T03:00:11;2.20;99.90
32612;DHT22;19030;49.478;8.986;2023-03-11T03:02:18;2.20;99.90
32612;DHT22;19030;49.478;8.986;2023-03-11T03:04:19;2.20;99.90
32612;DHT22;19030;49.478;8.986;2023-03-11T03:06:20;2.30;99.90
32612;DHT22;19030;49.478;8.986;2023-03-11T03:08:23;2.20;99.90
32612;DHT22;19030;49.478;8.986;2023-03-11T03:10:24;2.20;99.90
32612;DHT22;19030;49.478;8.986;2023-03-11T03:12:25;2.20;99.90
32612;DHT22;19030;49.478;8.986;2023-03-11T03:14:25;2.20;99.90
32612;DHT22;19030;49.478;8.986;2023-03-11T03:16:26;2.20;99.90
32612;DHT22;19030;49.478;8.986;2023-03-11T03:18:28;2.20;99.90
32612;DHT22;19030;49.478;8.986;2023-03-11T03:20:28;2.20;99.90
32612;DHT22;19030;49.478;8.986;2023-03-11T03:22:32;2.20;99.90
32612;DHT22;19030;49.478;8.986;2023-03-11T03:24:33;2.20;99.90
32612;DHT22;19030;49.478;8.986;2023-03-11T03:26:35;2.30;99.90
32612;DHT22;19030;49.478;8.986;2023-03-11T03:28:36;2.30;99.90
32612;DHT22;19030;49.478;8.986;2023-03-11T03:30:37;2.20;99.90
32612;DHT22;19030;49.478;8.986;2023-03-11T03:32:37;2.20;99.90
32612;DHT22;19030;49.478;8.986;2023-03-11T03:34:40;2.20;99.90
32612;DHT22;19030;49.478;8.986;2023-03-11T03:36:42;2.20;99.90
32612;DHT22;19030;49.478;8.986;2023-03-11T03:38:43;2.20;99.90
32612;DHT22;19030;49.478;8.986;2023-03-11T03:40:47;2.20;99.90
32612;DHT22;19030;49.478;8.986;2023-03-11T03:42:50;2.20;99.90
32612;DHT22;19030;49.478;8.986;2023-03-11T03:44:51;2.10;99.90
32612;DHT22;19030;49.478;8.986;2023-03-11T03:46:52;2.10;99.90
32612;DHT22;19030;49.478;8.986;2023-03-11T03:48:56;2.10;99.90
32612;DHT22;19030;49.478;8.986;2023-03-11T03:51:02;2.20;99.90
32612;DHT22;19030;49.478;8.986;2023-03-11T03:53:02;2.20;99.90
32612;DHT22;19030;49.478;8.986;2023-03-11T03:55:04;2.20;99.90
32612;DHT22;19030;49.478;8.986;2023-03-11T03:57:06;2.10;99.90
32612;DHT22;19030;49.478;8.986;2023-03-11T03:59:12;2.10;99.90
32612;DHT22;19030;49.478;8.986;2023-03-11T04:01:18;2.00;99.90
32612;DHT22;19030;49.478;8.986;2023-03-11T04:03:18;2.00;99.90
32612;DHT22;19030;49.478;8.986;2023-03-11T04:05:26;1.90;99.90
32612;DHT22;19030;49.478;8.986;2023-03-11T04:07:27;1.90;99.90
32612;DHT22;19030;49.478;8.986;2023-03-11T04:09:28;1.90;99.90
32612;DHT22;19030;49.478;8.986;2023-03-11T04:11:28;1.80;99.90
32612;DHT22;19030;49.478;8.986;2023-03-11T04:13:31;1.90;99.90
32612;DHT22;19030;49.478;8.986;2023-03-11T04:15:32;1.80;99.90
32612;DHT22;19030;49.478;8.986;2023-03-11T04:17:32;1.80;99.90
32612;DHT22;19030;49.478;8.986;2023-03-11T04:19:35;1.80;99.90
32612;DHT22;19030;49.478;8.986;2023-03-11T04:21:36;1.70;99.90
32612;DHT22;19030;49.478;8.986;2023-03-11T04:23:38;1.80;99.90
32612;DHT22;19030;49.478;8.986;2023-03-11T04:25:39;1.80;99.90
32612;DHT22;19030;49.478;8.986;2023-03-11T04:27:40;1.80;99.90
32612;DHT22;19030;49.478;8.986;2023-03-11T04:29:47;1.80;99.90
32612;DHT22;19030;49.478;8.986;2023-03-11T04:31:48;1.70;99.90
32612;DHT22;19030;49.478;8.986;2023-03-11T04:33:49;1.80;99.90
32612;DHT22;19030;49.478;8.986;2023-03-11T04:35:50;1.80;99.90
32612;DHT22;19030;49.478;8.986;2023-03-11T04:37:52;1.80;99.90
32612;DHT22;19030;49.478;8.986;2023-03-11T04:39:53;1.80;99.90
32612;DHT22;19030;49.478;8.986;2023-03-11T04:41:54;1.80;99.90
32612;DHT22;19030;49.478;8.986;2023-03-11T04:43:58;1.80;99.90
32612;DHT22;19030;49.478;8.986;2023-03-11T04:45:59;1.90;99.90
32612;DHT22;19030;49.478;8.986;2023-03-11T04:48:00;1.90;99.90
32612;DHT22;19030;49.478;8.986;2023-03-11T04:50:01;1.90;99.90
32612;DHT22;19030;49.478;8.986;2023-03-11T04:52:02;1.90;99.90
32612;DHT22;19030;49.478;8.986;2023-03-11T04:54:03;1.90;99.90
32612;DHT22;19030;49.478;8.986;2023-03-11T04:56:04;1.90;99.90
32612;DHT22;19030;49.478;8.986;2023-03-11T04:58:05;1.90;99.90
32612;DHT22;19030;49.478;8.986;2023-03-11T05:00:10;1.90;99.90
32612;DHT22;19030;49.478;8.986;2023-03-11T05:02:12;1.90;99.90
32612;DHT22;19030;49.478;8.986;2023-03-11T05:04:15;1.90;99.90
32612;DHT22;19030;49.478;8.986;2023-03-11T05:06:16;1.80;99.90
32612;DHT22;19030;49.478;8.986;2023-03-11T05:08:17;1.80;99.90
32612;DHT22;19030;49.478;8.986;2023-03-11T05:10:18;1.80;99.90
32612;DHT22;19030;49.478;8.986;2023-03-11T05:12:22;1.70;99.90
32612;DHT22;19030;49.478;8.986;2023-03-11T05:14:26;1.80;99.90
32612;DHT22;19030;49.478;8.986;2023-03-11T05:16:28;1.80;99.90
32612;DHT22;19030;49.478;8.986;2023-03-11T05:18:29;1.80;99.90
32612;DHT22;19030;49.478;8.986;2023-03-11T05:20:32;1.80;99.90
32612;DHT22;19030;49.478;8.986;2023-03-11T05:22:33;1.80;99.90
32612;DHT22;19030;49.478;8.986;2023-03-11T05:24:34;1.70;99.90
32612;DHT22;19030;49.478;8.986;2023-03-11T05:26:34;1.70;99.90
32612;DHT22;19030;49.478;8.986;2023-03-11T05:28:35;1.60;99.90
32612;DHT22;19030;49.478;8.986;2023-03-11T05:30:36;1.60;99.90
32612;DHT22;19030;49.478;8.986;2023-03-11T05:32:37;1.50;99.90
32612;DHT22;19030;49.478;8.986;2023-03-11T05:34:40;1.50;99.90
32612;DHT22;19030;49.478;8.986;2023-03-11T05:36:42;1.50;99.90
32612;DHT22;19030;49.478;8.986;2023-03-11T05:38:43;1.50;99.90
32612;DHT22;19030;49.478;8.986;2023-03-11T05:40:44;1.40;99.90
32612;DHT22;19030;49.478;8.986;2023-03-11T05:42:45;1.40;99.90
32612;DHT22;19030;49.478;8.986;2023-03-11T05:44:47;1.50;99.90
32612;DHT22;19030;49.478;8.986;2023-03-11T05:46:48;1.50;99.90
32612;DHT22;19030;49.478;8.986;2023-03-11T05:48:49;1.50;99.90
32612;DHT22;19030;49.478;8.986;2023-03-11T05:50:49;1.50;99.90
32612;DHT22;19030;49.478;8.986;2023-03-11T05:52:50;1.50;99.90
32612;DHT22;19030;49.478;8.986;2023-03-11T05:54:52;1.60;99.90
32612;DHT22;19030;49.478;8.986;2023-03-11T05:56:57;1.60;99.90
32612;DHT22;19030;49.478;8.986;2023-03-11T05:58:58;1.60;99.90
32612;DHT22;19030;49.478;8.986;2023-03-11T06:01:07;1.50;99.90
32612;DHT22;19030;49.478;8.986;2023-03-11T06:03:08;1.50;99.90
32612;DHT22;19030;49.478;8.986;2023-03-11T06:05:09;1.60;99.90
32612;DHT22;19030;49.478;8.986;2023-03-11T06:07:10;1.60;99.90
32612;DHT22;19030;49.478;8.986;2023-03-11T06:09:13;1.50;99.90
32612;DHT22;19030;49.478;8.986;2023-03-11T06:11:15;1.50;99.90
32612;DHT22;19030;49.478;8.986;2023-03-11T06:13:16;1.50;99.90
32612;DHT22;19030;49.478;8.986;2023-03-11T06:15:22;1.50;99.90
32612;DHT22;19030;49.478;8.986;2023-03-11T06:17:23;1.50;99.90
32612;DHT22;19030;49.478;8.986;2023-03-11T06:19:24;1.50;99.90
32612;DHT22;19030;49.478;8.986;2023-03-11T06:21:26;1.50;99.90
32612;DHT22;19030;49.478;8.986;2023-03-11T06:23:27;1.50;99.90
32612;DHT22;19030;49.478;8.986;2023-03-11T06:25:28;1.60;99.90
32612;DHT22;19030;49.478;8.986;2023-03-11T06:27:29;1.60;99.90
32612;DHT22;19030;49.478;8.986;2023-03-11T06:29:30;1.70;99.90
32612;DHT22;19030;49.478;8.986;2023-03-11T06:31:31;1.70;99.90
32612;DHT22;19030;49.478;8.986;2023-03-11T06:33:38;1.80;99.90
32612;DHT22;19030;49.478;8.986;2023-03-11T06:35:38;1.80;99.90
32612;DHT22;19030;49.478;8.986;2023-03-11T06:37:39;1.90;99.90
32612;DHT22;19030;49.478;8.986;2023-03-11T06:39:40;2.00;99.90
32612;DHT22;19030;49.478;8.986;2023-03-11T06:41:41;2.00;99.90
32612;DHT22;19030;49.478;8.986;2023-03-11T06:43:44;2.10;99.90
32612;DHT22;19030;49.478;8.986;2023-03-11T06:45:46;2.20;99.90
32612;DHT22;19030;49.478;8.986;2023-03-11T06:47:47;2.30;99.90
32612;DHT22;19030;49.478;8.986;2023-03-11T06:49:49;2.50;99.90
32612;DHT22;19030;49.478;8.986;2023-03-11T06:51:50;2.70;99.90
32612;DHT22;19030;49.478;8.986;2023-03-11T06:53:52;2.90;99.90
32612;DHT22;19030;49.478;8.986;2023-03-11T06:56:10;3.00;99.90
32612;DHT22;19030;49.478;8.986;2023-03-11T06:58:17;3.20;99.90
32612;DHT22;19030;49.478;8.986;2023-03-11T07:00:18;3.40;99.90
32612;DHT22;19030;49.478;8.986;2023-03-11T07:02:25;3.60;99.90
32612;DHT22;19030;49.478;8.986;2023-03-11T07:04:26;4.00;99.90
32612;DHT22;19030;49.478;8.986;2023-03-11T07:06:27;4.40;99.90
32612;DHT22;19030;49.478;8.986;2023-03-11T07:08:35;4.80;99.90
32612;DHT22;19030;49.478;8.986;2023-03-11T07:10:36;5.20;99.90
32612;DHT22;19030;49.478;8.986;2023-03-11T07:12:37;5.40;99.90
32612;DHT22;19030;49.478;8.986;2023-03-11T07:14:37;5.60;99.90
32612;DHT22;19030;49.478;8.986;2023-03-11T07:16:38;5.50;99.90
32612;DHT22;19030;49.478;8.986;2023-03-11T07:18:46;5.50;99.90
32612;DHT22;19030;49.478;8.986;2023-03-11T07:20:47;5.40;99.90
32612;DHT22;19030;49.478;8.986;2023-03-11T07:22:47;5.40;99.90
32612;DHT22;19030;49.478;8.986;2023-03-11T07:24:48;5.60;99.90
32612;DHT22;19030;49.478;8.986;2023-03-11T07:26:48;5.60;99.90
32612;DHT22;19030;49.478;8.986;2023-03-11T07:28:49;5.60;99.90
32612;DHT22;19030;49.478;8.986;2023-03-11T07:30:50;5.60;99.90
32612;DHT22;19030;49.478;8.986;2023-03-11T07:32:51;5.70;99.90
32612;DHT22;19030;49.478;8.986;2023-03-11T07:34:52;5.90;99.90
32612;DHT22;19030;49.478;8.986;2023-03-11T07:36:52;6.10;99.00
32612;DHT22;19030;49.478;8.986;2023-03-11T07:38:58;6.00;97.90
32612;DHT22;19030;49.478;8.986;2023-03-11T07:41:00;6.20;97.20
32612;DHT22;19030;49.478;8.986;2023-03-11T07:43:00;6.30;97.30
32612;DHT22;19030;49.478;8.986;2023-03-11T07:45:01;6.20;97.20
32612;DHT22;19030;49.478;8.986;2023-03-11T07:47:03;6.00;97.10
32612;DHT22;19030;49.478;8.986;2023-03-11T07:49:03;5.70;97.40
32612;DHT22;19030;49.478;8.986;2023-03-11T07:51:09;5.20;97.30
32612;DHT22;19030;49.478;8.986;2023-03-11T07:53:10;4.70;98.10
32612;DHT22;19030;49.478;8.986;2023-03-11T07:55:11;4.40;99.70
32612;DHT22;19030;49.478;8.986;2023-03-11T07:57:11;4.30;99.90
32612;DHT22;19030;49.478;8.986;2023-03-11T07:59:16;4.20;99.90
32612;DHT22;19030;49.478;8.986;2023-03-11T08:01:20;4.20;99.90
32612;DHT22;19030;49.478;8.986;2023-03-11T08:03:21;4.20;99.90
32612;DHT22;19030;49.478;8.986;2023-03-11T08:05:21;4.10;99.90
32612;DHT22;19030;49.478;8.986;2023-03-11T08:07:22;4.00;99.90
32612;DHT22;19030;49.478;8.986;2023-03-11T08:09:22;4.00;99.90
32612;DHT22;19030;49.478;8.986;2023-03-11T08:11:23;3.90;99.90
32612;DHT22;19030;49.478;8.986;2023-03-11T08:13:24;3.80;99.90
32612;DHT22;19030;49.478;8.986;2023-03-11T08:15:25;3.80;99.90
32612;DHT22;19030;49.478;8.986;2023-03-11T08:17:25;3.80;99.90
32612;DHT22;19030;49.478;8.986;2023-03-11T08:19:26;3.80;99.90
32612;DHT22;19030;49.478;8.986;2023-03-11T08:21:28;3.80;99.90
32612;DHT22;19030;49.478;8.986;2023-03-11T08:23:31;3.80;99.90
32612;DHT22;19030;49.478;8.986;2023-03-11T08:25:31;3.80;99.90
32612;DHT22;19030;49.478;8.986;2023-03-11T08:27:32;3.90;99.90
32612;DHT22;19030;49.478;8.986;2023-03-11T08:29:32;4.00;99.90
32612;DHT22;19030;49.478;8.986;2023-03-11T08:31:33;4.20;99.90
32612;DHT22;19030;49.478;8.986;2023-03-11T08:33:37;4.50;99.20
32612;DHT22;19030;49.478;8.986;2023-03-11T08:35:37;5.00;98.30
32612;DHT22;19030;49.478;8.986;2023-03-11T08:37:38;5.30;97.30
32612;DHT22;19030;49.478;8.986;2023-03-11T08:39:38;5.80;95.70
32612;DHT22;19030;49.478;8.986;2023-03-11T08:41:39;6.30;95.10
32612;DHT22;19030;49.478;8.986;2023-03-11T08:43:40;6.80;94.50
32612;DHT22;19030;49.478;8.986;2023-03-11T08:45:41;7.20;92.20
32612;DHT22;19030;49.478;8.986;2023-03-11T08:47:42;7.20;90.60
32612;DHT22;19030;49.478;8.986;2023-03-11T08:49:42;7.20;90.10
32612;DHT22;19030;49.478;8.986;2023-03-11T08:51:43;7.20;89.60
32612;DHT22;19030;49.478;8.986;2023-03-11T08:53:44;7.10;89.50
32612;DHT22;19030;49.478;8.986;2023-03-11T08:55:44;7.10;87.60
32612;DHT22;19030;49.478;8.986;2023-03-11T08:57:45;7.50;86.50
32612;DHT22;19030;49.478;8.986;2023-03-11T08:59:45;7.70;82.50
32612;DHT22;19030;49.478;8.986;2023-03-11T09:01:46;7.40;81.00
32612;DHT22;19030;49.478;8.986;2023-03-11T09:03:46;7.20;84.20
32612;DHT22;19030;49.478;8.986;2023-03-11T09:05:47;6.80;82.50
32612;DHT22;19030;49.478;8.986;2023-03-11T09:07:48;6.30;83.90
32612;DHT22;19030;49.478;8.986;2023-03-11T09:09:48;6.10;85.10
32612;DHT22;19030;49.478;8.986;2023-03-11T09:11:49;6.00;85.60
32612;DHT22;19030;49.478;8.986;2023-03-11T09:13:50;6.00;85.90
32612;DHT22;19030;49.478;8.986;2023-03-11T09:15:51;6.00;85.70
32612;DHT22;19030;49.478;8.986;2023-03-11T09:17:52;7.50;82.30
32612;DHT22;19030;49.478;8.986;2023-03-11T09:19:53;8.30;76.80
32612;DHT22;19030;49.478;8.986;2023-03-11T09:21:54;8.70;74.80
32612;DHT22;19030;49.478;8.986;2023-03-11T09:23:54;8.60;72.30
32612;DHT22;19030;49.478;8.986;2023-03-11T09:25:55;8.10;72.90
32612;DHT22;19030;49.478;8.986;2023-03-11T09:27:55;7.70;75.20
32612;DHT22;19030;49.478;8.986;2023-03-11T09:29:56;7.40;76.20
32612;DHT22;19030;49.478;8.986;2023-03-11T09:31:57;7.20;75.80
32612;DHT22;19030;49.478;8.986;2023-03-11T09:33:58;6.90;75.30
32612;DHT22;19030;49.478;8.986;2023-03-11T09:35:58;6.70;75.40
32612;DHT22;19030;49.478;8.986;2023-03-11T09:37:59;6.60;74.00
32612;DHT22;19030;49.478;8.986;2023-03-11T09:39:59;6.60;74.20
32612;DHT22;19030;49.478;8.986;2023-03-11T09:42:09;7.00;75.40
32612;DHT22;19030;49.478;8.986;2023-03-11T09:44:28;7.70;71.00
32612;DHT22;19030;49.478;8.986;2023-03-11T09:51:22;11.20;61.70
32612;DHT22;19030;49.478;8.986;2023-03-11T09:53:43;11.80;53.70
32612;DHT22;19030;49.478;8.986;2023-03-11T09:57:51;10.30;54.80
32612;DHT22;19030;49.478;8.986;2023-03-11T09:59:54;11.00;54.30
32612;DHT22;19030;49.478;8.986;2023-03-11T10:01:55;12.70;52.50
32612;DHT22;19030;49.478;8.986;2023-03-11T10:03:59;15.10;47.00
32612;DHT22;19030;49.478;8.986;2023-03-11T10:06:26;17.60;43.10
32612;DHT22;19030;49.478;8.986;2023-03-11T10:09:14;18.30;37.30
32612;DHT22;19030;49.478;8.986;2023-03-11T10:16:23;15.60;38.00
32612;DHT22;19030;49.478;8.986;2023-03-11T10:23:43;14.10;39.30
32612;DHT22;19030;49.478;8.986;2023-03-11T10:29:06;14.40;41.70
32612;DHT22;19030;49.478;8.986;2023-03-11T10:30:39;15.40;39.10
32612;DHT22;19030;49.478;8.986;2023-03-11T10:32:48;17.00;35.70
32612;DHT22;19030;49.478;8.986;2023-03-11T10:34:59;18.60;33.40
32612;DHT22;19030;49.478;8.986;2023-03-11T10:39:48;20.10;30.50
32612;DHT22;19030;49.478;8.986;2023-03-11T10:42:04;17.90;33.30
32612;DHT22;19030;49.478;8.986;2023-03-11T10:44:12;16.00;35.10
32612;DHT22;19030;49.478;8.986;2023-03-11T10:46:18;14.20;38.90
32612;DHT22;19030;49.478;8.986;2023-03-11T10:48:21;12.60;40.80
32612;DHT22;19030;49.478;8.986;2023-03-11T10:50:22;11.60;42.80
32612;DHT22;19030;49.478;8.986;2023-03-11T10:52:22;10.50;44.50
32612;DHT22;19030;49.478;8.986;2023-03-11T10:54:33;9.70;46.10
32612;DHT22;19030;49.478;8.986;2023-03-11T10:56:37;9.40;47.30
32612;DHT22;19030;49.478;8.986;2023-03-11T10:58:47;9.20;47.90
32612;DHT22;19030;49.478;8.986;2023-03-11T11:03:17;8.90;50.80
32612;DHT22;19030;49.478;8.986;2023-03-11T11:07:30;8.70;49.60
32612;DHT22;19030;49.478;8.986;2023-03-11T11:09:31;8.80;49.80
32612;DHT22;19030;49.478;8.986;2023-03-11T11:11:32;8.90;49.50
32612;DHT22;19030;49.478;8.986;2023-03-11T11:13:35;9.10;49.60
32612;DHT22;19030;49.478;8.986;2023-03-11T11:15:41;9.60;49.60
32612;DHT22;19030;49.478;8.986;2023-03-11T11:17:46;9.70;48.60
32612;DHT22;19030;49.478;8.986;2023-03-11T11:19:47;10.10;50.30
32612;DHT22;19030;49.478;8.986;2023-03-11T11:21:49;13.10;47.50
32612;DHT22;19030;49.478;8.986;2023-03-11T11:24:14;17.00;41.40
32612;DHT22;19030;49.478;8.986;2023-03-11T11:26:20;20.40;35.30
32612;DHT22;19030;49.478;8.986;2023-03-11T11:28:21;20.60;30.70
32612;DHT22;19030;49.478;8.986;2023-03-11T11:30:22;18.50;31.90
32612;DHT22;19030;49.478;8.986;2023-03-11T11:32:24;15.70;35.20
32612;DHT22;19030;49.478;8.986;2023-03-11T11:34:33;13.70;38.90
32612;DHT22;19030;49.478;8.986;2023-03-11T11:36:35;12.30;40.20
32612;DHT22;19030;49.478;8.986;2023-03-11T11:38:38;11.30;43.50
32612;DHT22;19030;49.478;8.986;2023-03-11T11:40:38;10.50;45.30
32612;DHT22;19030;49.478;8.986;2023-03-11T11:42:47;10.20;46.50
32612;DHT22;19030;49.478;8.986;2023-03-11T11:45:29;9.90;45.30
32612;DHT22;19030;49.478;8.986;2023-03-11T11:47:35;10.10;45.40
32612;DHT22;19030;49.478;8.986;2023-03-11T11:49:43;10.40;45.50
32612;DHT22;19030;49.478;8.986;2023-03-11T11:52:08;10.50;45.20
32612;DHT22;19030;49.478;8.986;2023-03-11T11:54:20;10.40;44.30
32612;DHT22;19030;49.478;8.986;2023-03-11T11:56:24;10.20;45.20
32612;DHT22;19030;49.478;8.986;2023-03-11T11:58:25;9.90;46.40
32612;DHT22;19030;49.478;8.986;2023-03-11T12:00:36;9.70;46.30
32612;DHT22;19030;49.478;8.986;2023-03-11T12:02:51;9.30;45.40
32612;DHT22;19030;49.478;8.986;2023-03-11T12:12:23;8.20;49.10
32612;DHT22;19030;49.478;8.986;2023-03-11T12:14:51;7.90;50.50
32612;DHT22;19030;49.478;8.986;2023-03-11T12:17:00;7.70;51.40
32612;DHT22;19030;49.478;8.986;2023-03-11T12:23:54;7.20;52.80
32612;DHT22;19030;49.478;8.986;2023-03-11T12:26:19;7.50;51.80
32612;DHT22;19030;49.478;8.986;2023-03-11T12:30:27;8.10;52.70
32612;DHT22;19030;49.478;8.986;2023-03-11T12:32:38;9.80;50.10
32612;DHT22;19030;49.478;8.986;2023-03-11T12:34:40;10.50;47.20
32612;DHT22;19030;49.478;8.986;2023-03-11T12:36:43;10.80;45.90
32612;DHT22;19030;49.478;8.986;2023-03-11T12:38:46;12.40;45.80
32612;DHT22;19030;49.478;8.986;2023-03-11T12:42:49;12.80;41.30
32612;DHT22;19030;49.478;8.986;2023-03-11T12:44:50;12.00;42.30
32612;DHT22;19030;49.478;8.986;2023-03-11T12:49:11;10.70;43.60
32612;DHT22;19030;49.478;8.986;2023-03-11T12:53:47;11.80;44.10
32612;DHT22;19030;49.478;8.986;2023-03-11T12:56:07;14.00;41.70
32612;DHT22;19030;49.478;8.986;2023-03-11T12:58:31;16.20;37.60
32612;DHT22;19030;49.478;8.986;2023-03-11T13:00:43;18.00;33.60
32612;DHT22;19030;49.478;8.986;2023-03-11T13:05:30;17.90;34.20
32612;DHT22;19030;49.478;8.986;2023-03-11T13:07:50;17.20;32.30
32612;DHT22;19030;49.478;8.986;2023-03-11T13:12:36;18.60;31.70
32612;DHT22;19030;49.478;8.986;2023-03-11T13:14:37;19.20;29.90
32612;DHT22;19030;49.478;8.986;2023-03-11T13:16:38;18.90;30.00
32612;DHT22;19030;49.478;8.986;2023-03-11T13:18:41;19.00;31.00
32612;DHT22;19030;49.478;8.986;2023-03-11T13:20:46;19.90;30.40
32612;DHT22;19030;49.478;8.986;2023-03-11T13:24:53;20.80;29.90
32612;DHT22;19030;49.478;8.986;2023-03-11T13:29:28;20.40;27.70
32612;DHT22;19030;49.478;8.986;2023-03-11T13:31:51;20.00;27.80
32612;DHT22;19030;49.478;8.986;2023-03-11T13:34:00;18.60;28.30
32612;DHT22;19030;49.478;8.986;2023-03-11T13:38:42;16.80;31.60
32612;DHT22;19030;49.478;8.986;2023-03-11T13:40:46;16.30;31.60
32612;DHT22;19030;49.478;8.986;2023-03-11T13:42:51;15.90;32.90
32612;DHT22;19030;49.478;8.986;2023-03-11T13:44:53;14.50;33.20
32612;DHT22;19030;49.478;8.986;2023-03-11T13:47:30;13.10;35.10
32612;DHT22;19030;49.478;8.986;2023-03-11T13:51:56;11.00;38.80
32612;DHT22;19030;49.478;8.986;2023-03-11T13:54:01;10.00;40.70
32612;DHT22;19030;49.478;8.986;2023-03-11T13:56:04;9.60;42.80
32612;DHT22;19030;49.478;8.986;2023-03-11T13:58:22;9.40;43.50
32612;DHT22;19030;49.478;8.986;2023-03-11T14:00:28;9.20;43.20
32612;DHT22;19030;49.478;8.986;2023-03-11T14:02:29;8.90;43.20
32612;DHT22;19030;49.478;8.986;2023-03-11T14:04:32;8.60;44.40
32612;DHT22;19030;49.478;8.986;2023-03-11T14:06:33;8.40;44.50
32612;DHT22;19030;49.478;8.986;2023-03-11T14:08:35;8.30;45.60
32612;DHT22;19030;49.478;8.986;2023-03-11T14:10:36;8.20;45.50
32612;DHT22;19030;49.478;8.986;2023-03-11T14:12:37;8.00;46.20
32612;DHT22;19030;49.478;8.986;2023-03-11T14:14:42;7.90;47.10
32612;DHT22;19030;49.478;8.986;2023-03-11T14:16:44;7.80;47.30